Airfield :
LOGIN :

Register | Disclaimer

   EN    FR    IT 

 










Legend :    VFR   Marginal VFR   IFR   Intensive IFR   Very Intensive IFR
Visi :
Ceiling :
>= 8 km
>= 3000ft
5 to 8 km
1000 to 3000 ft
1500m to 5 km
500 to 1000 ft
800 to 1500m
200 to 500 ft
< 800m
< 200 ft
Symbols :   Thunderstorms  Fog  Heavy snow  Heavy precipitations  Wind > 20 kt
SIGMETs :     Misc.  Thunderstorms  Icing  Turbulence  Mountain Waves  Volcanic Ashes







- Airport Elevation : 600 ft
- IATA code : VIE


LOWW - Vienna Schwechat

CURRENT METAR :
  • 120650Z 31006KT 9999 -RA FEW003 BKN010 00/M00 Q1018 R11/690295 R16///99// TEMPO SCT010 BKN015

EXPIRED METARs :
  • 120620Z 34004KT 6000 -SN FEW002 SCT003 BKN010 00/M01 Q1018 R11/690295 R16/590395 TEMPO BKN015
  • 120550Z 36004KT 4100 -SN FEW001 BKN003 00/M01 Q1018 R88/690295 TEMPO TL0700 BKN002 BECMG FM0700 7000 -SN FEW002 BKN007
  • 120520Z 36003KT 3000 SN FEW001 BKN004 00/M01 Q1017 R88/690295 BECMG 7000 -SN FEW002 BKN007
  • 120450Z VRB01KT 4800 -SN FEW002 BKN006 M00/M01 Q1017 R88/690295 TEMPO TL0600 2000 SN FEW002 OVC004
  • 120420Z 34004KT 9000 -RASN FEW001 BKN008 BKN010 00/M01 Q1017 R11/690295 R16///99// TEMPO 4000 -SN FEW001 OVC005

TAF AMD TAF LOWW
Valid from the 12 at 07:00 until the 13 at 12:00 UTC


120703Z 1207/1312 34005KT 8000 -SN FEW004 SCT007 OVC010 TX02/1212Z TNM03/1305Z
BECMG 1207/1210 NSW FEW013 BKN020
TEMPO 1210/1217 33010KT 8000 -SN BKN013
BECMG 1222/1224 7000 BKN007
TEMPO 1301/1309 4000 BR FEW002 BKN004
BECMG 1310/1312 11005KT
No reported NOTAMs for that airfield.



MET'MAP, your aeronautical weather chart ! - Copyright ORBIFLY December 2007 - Disclaimer

ORBIFLY MET'MAP TEAM :

Programming & Development : Alexandra Zaïnal
Concept & Development : Baudouin d'Aumeries
Co-Development & Prog : Marc-Olivier Méhu
Technical & hardware support : Manuel Goepfert

Contact : metmap@orbifly.com




SOURCES & CREDITS :

   NOAA